createdAt,value
2023-04-08T00:01:04.852Z,1021.76
2023-04-08T00:11:11.037Z,1021.74
2023-04-08T00:21:17.089Z,1021.76
2023-04-08T00:31:23.587Z,1021.76
2023-04-08T00:41:30.289Z,1021.78
2023-04-08T00:51:36.696Z,1021.74
2023-04-08T01:01:43.312Z,1021.79
2023-04-08T01:11:49.841Z,1021.87
2023-04-08T01:21:55.935Z,1021.96
2023-04-08T01:32:02.712Z,1021.94
2023-04-08T01:42:08.860Z,1021.97
2023-04-08T01:52:15.497Z,1022.04
2023-04-08T02:02:21.991Z,1021.98
2023-04-08T02:12:28.498Z,1022.15
2023-04-08T02:22:35.460Z,1022.19
2023-04-08T02:32:41.819Z,1022.24
2023-04-08T02:42:49.073Z,1022.35
2023-04-08T02:52:55.934Z,1022.42
2023-04-08T03:03:02.749Z,1022.43
2023-04-08T03:13:10.389Z,1022.47
2023-04-08T03:23:17.654Z,1022.57
2023-04-08T03:33:24.259Z,1022.58
2023-04-08T03:43:30.704Z,1022.62
2023-04-08T03:53:37.221Z,1022.76
2023-04-08T04:03:44.323Z,1022.90
2023-04-08T04:13:50.984Z,1022.88
2023-04-08T04:23:57.752Z,1023.05
2023-04-08T04:34:04.279Z,1023.15
2023-04-08T04:44:10.584Z,1023.20
2023-04-08T04:54:17.240Z,1023.35
2023-04-08T05:04:23.065Z,1023.40
2023-04-08T05:14:29.983Z,1023.41
2023-04-08T05:24:36.703Z,1023.47
2023-04-08T05:34:43.795Z,1023.62
2023-04-08T05:44:49.960Z,1023.85
2023-04-08T05:54:56.848Z,1023.85
2023-04-08T06:05:03.058Z,1023.82
2023-04-08T06:15:09.304Z,1024.06
2023-04-08T06:25:15.609Z,1024.04
2023-04-08T06:35:22.202Z,1024.17
2023-04-08T06:45:28.906Z,1024.29
2023-04-08T06:55:35.180Z,1024.43
2023-04-08T07:05:42.100Z,1024.57
2023-04-08T07:15:49.168Z,1024.64
2023-04-08T07:25:55.881Z,1024.73
2023-04-08T07:36:02.197Z,1024.87
2023-04-08T07:46:08.541Z,1024.92
2023-04-08T07:56:15.570Z,1025.05
2023-04-08T08:06:22.743Z,1025.06
2023-04-08T08:16:29.022Z,1025.09
2023-04-08T08:26:35.601Z,1025.19
2023-04-08T08:36:41.643Z,1025.24
2023-04-08T08:46:48.845Z,1025.37
2023-04-08T08:56:54.938Z,1025.40
2023-04-08T09:07:01.431Z,1025.49
2023-04-08T09:17:08.635Z,1025.62
2023-04-08T09:27:14.893Z,1025.73
2023-04-08T09:37:21.909Z,1025.78
2023-04-08T09:47:28.954Z,1025.82
2023-04-08T09:57:36.270Z,1025.79
2023-04-08T10:07:43.353Z,1025.80
2023-04-08T10:17:50.696Z,1025.87
2023-04-08T10:27:59.835Z,1025.85
2023-04-08T10:38:06.539Z,1025.87
2023-04-08T10:48:12.634Z,1025.88
2023-04-08T10:58:18.921Z,1025.92
2023-04-08T11:08:25.237Z,1025.83
2023-04-08T11:18:31.737Z,1025.93
2023-04-08T11:28:37.821Z,1025.95
2023-04-08T11:38:43.969Z,1026.01
2023-04-08T11:48:50.476Z,1025.96
2023-04-08T11:58:58.385Z,1025.88
2023-04-08T12:09:04.764Z,1025.86
2023-04-08T12:19:11.704Z,1025.91
2023-04-08T12:29:18.083Z,1025.88
2023-04-08T12:39:24.642Z,1025.87
2023-04-08T12:49:39.668Z,1025.73
2023-04-08T12:59:43.387Z,1025.78
2023-04-08T13:09:50.400Z,1025.70
2023-04-08T13:19:56.760Z,1025.67
2023-04-08T13:30:03.034Z,1025.68
2023-04-08T13:40:09.906Z,1025.65
2023-04-08T13:50:16.133Z,1025.58
2023-04-08T14:00:22.624Z,1025.58
2023-04-08T14:10:29.074Z,1025.57
2023-04-08T14:20:35.252Z,1025.57
2023-04-08T14:30:42.029Z,1025.54
2023-04-08T14:40:48.180Z,1025.50
2023-04-08T14:50:54.619Z,1025.47
2023-04-08T15:01:00.919Z,1025.40
2023-04-08T15:11:08.000Z,1025.49
2023-04-08T15:21:14.453Z,1025.53
2023-04-08T15:31:20.529Z,1025.54
2023-04-08T15:41:26.962Z,1025.58
2023-04-08T15:51:33.217Z,1025.58
2023-04-08T16:01:39.509Z,1025.59
2023-04-08T16:11:46.640Z,1025.63
2023-04-08T16:21:52.770Z,1025.69
2023-04-08T16:31:59.342Z,1025.84
2023-04-08T16:42:05.572Z,1025.91
2023-04-08T16:52:11.888Z,1026.08
2023-04-08T17:02:18.495Z,1026.32
2023-04-08T17:12:25.244Z,1026.49
2023-04-08T17:22:32.263Z,1026.61
2023-04-08T17:32:39.150Z,1026.81
2023-04-08T17:42:45.880Z,1026.95
2023-04-08T17:52:52.153Z,1027.12
2023-04-08T18:02:58.674Z,1027.33
2023-04-08T18:13:11.352Z,1027.44
2023-04-08T18:23:16.480Z,1027.63
2023-04-08T18:33:23.010Z,1027.72
2023-04-08T18:43:28.722Z,1027.92
2023-04-08T18:53:34.814Z,1028.04
2023-04-08T19:03:42.114Z,1028.14
2023-04-08T19:13:48.296Z,1028.18
2023-04-08T19:23:54.357Z,1028.24
2023-04-08T19:34:00.644Z,1028.20
2023-04-08T19:44:07.073Z,1028.30
2023-04-08T19:54:13.949Z,1028.26
2023-04-08T20:04:20.455Z,1028.30
2023-04-08T20:14:27.835Z,1028.28
2023-04-08T20:24:33.789Z,1028.37
2023-04-08T20:34:40.731Z,1028.34
2023-04-08T20:44:47.286Z,1028.30
2023-04-08T20:54:53.593Z,1028.34
2023-04-08T21:05:00.302Z,1028.42
2023-04-08T21:15:07.090Z,1028.43
2023-04-08T21:25:13.532Z,1028.50
2023-04-08T21:35:22.128Z,1028.47
2023-04-08T21:45:29.004Z,1028.48
2023-04-08T21:55:36.272Z,1028.48
2023-04-08T22:05:42.184Z,1028.49
2023-04-08T22:15:48.999Z,1028.38
2023-04-08T22:25:55.129Z,1028.32
2023-04-08T22:36:02.985Z,1028.27
2023-04-08T22:46:09.289Z,1028.17
2023-04-08T22:56:15.538Z,1028.02
2023-04-08T23:06:21.953Z,1028.09
2023-04-08T23:16:28.420Z,1028.16
2023-04-08T23:26:34.941Z,1028.11
2023-04-08T23:36:41.704Z,1028.11
2023-04-08T23:46:48.015Z,1028.07
2023-04-08T23:56:54.983Z,1028.02
